メインページ
METAR-TAF:

METAR-TAF

空港 :

バミューダ国際空港

バミューダ諸島, バミューダ諸島

緯度: 32-22N, 経度: 064-41W, 海抜: 6m

現時点の気象観測

当レポートは25分前の13:55(UTC)に作成
の風 15kt
気温 27°C
湿度 84%
気圧 1023 hPa
視程10km以上
高度1500ftの雲はほとんどない
高度5200ftの雲はほとんどない
高度18000ftの千切れ雲あり
高度30000ftの曇り

METAR: TXKF 201355Z 19015KT 9999 FEW015 FEW052 BKN180 OVC300 27/24 Q1023

時間: 11:20 (14:20 UTC)

予報

当レポートは2時間49分前の11:31(UTC)に作成
予報は20日の 12時(UTC)から 21日の 12時(UTC)まで有効
の風 10kt
視程10km以上
高度1400ftの雲はほとんどない
高度6000ftの雲は散在している
高度30000ftの千切れ雲あり
近辺でにわか雨
確率 30% :
20日の 12時(UTC)から 20日の 21時(UTC)まで一時的に
視程: 4800m
高度1400ftの千切れ雲あり
にわか雨

TAF: TXKF 201131Z 2012/2112 19010KT 9999 VCSH FEW014 SCT060 BKN300 PROB30 TEMPO 2012/2021 4800 SHRA BKN014

4,000以上の空港の気象観測と天気予報(METAR報とTAF報)

利用可能な観測所は地図上に黄色い丸と赤い丸で示す。

丸の上にカーソルを重ねると観測所名を参照できる。

次にクリックすると気象観測と天気予報を参照できる。

マップの切り替え:黒色「×」印の緑ボタンをクリックして拡大、「-」印の緑ボタンをクリックして縮小、緑色の三角印をクリックして隣りの地図に切り替え


METAR-TAF: